Time;durP1;ratioP1;P1;durP2;ratioP2;P2;SDS_P1;SDS_P2;PMS_P1;PMS_P2;Temp;Humidity;BMP_temperature;BMP_pressure;BME280_temperature;BME280_humidity;BME280_pressure;Samples;Min_cycle;Max_cycle;Signal;HPM_P1;HPM_P2
2021/04/03 00:02:18;;;;;;;24.35;12.18;;;15.30;72.30;;;;;;5054522;28;20052;-75
2021/04/03 00:04:43;;;;;;;27.73;13.15;;;15.30;72.50;;;;;;5086669;28;20036;-75
2021/04/03 00:07:09;;;;;;;21.55;12.82;;;15.20;72.40;;;;;;5054886;28;20132;-75
2021/04/03 00:09:35;;;;;;;28.48;13.93;;;15.20;72.70;;;;;;5053893;28;20017;-75
2021/04/03 00:12:00;;;;;;;28.38;13.32;;;15.10;73.20;;;;;;5055210;28;20487;-75
2021/04/03 00:14:26;;;;;;;20.80;12.57;;;15.10;73.40;;;;;;5054870;28;20108;-75
2021/04/03 00:16:52;;;;;;;24.38;13.27;;;15.00;73.40;;;;;;5054742;28;20479;-78
2021/04/03 00:19:18;;;;;;;32.67;15.63;;;14.90;73.50;;;;;;5055469;28;20036;-78
2021/04/03 00:21:44;;;;;;;34.28;13.88;;;15.00;73.50;;;;;;5054206;28;20383;-75
2021/04/03 00:24:10;;;;;;;21.80;13.43;;;15.00;73.50;;;;;;5054161;28;20123;-75
2021/04/03 00:26:36;;;;;;;26.27;13.32;;;14.90;73.40;;;;;;5054647;28;20155;-75
2021/04/03 00:29:01;;;;;;;28.63;13.85;;;14.90;73.40;;;;;;5053052;28;20032;-78
2021/04/03 00:31:27;;;;;;;27.00;13.50;;;14.90;73.40;;;;;;5052171;28;20032;-78
2021/04/03 00:33:53;;;;;;;29.92;12.77;;;14.90;73.70;;;;;;5051948;28;20303;-79
2021/04/03 00:36:18;;;;;;;25.17;13.13;;;14.90;73.80;;;;;;5052061;28;20021;-78
2021/04/03 00:38:44;;;;;;;28.60;13.77;;;14.90;73.80;;;;;;5051923;28;20032;-78
2021/04/03 00:41:10;;;;;;;22.83;13.82;;;14.90;74.00;;;;;;5051831;28;20021;-78
2021/04/03 00:43:35;;;;;;;24.10;13.20;;;14.80;74.10;;;;;;5052306;28;20033;-78
2021/04/03 00:46:01;;;;;;;29.08;13.10;;;14.80;74.50;;;;;;5053334;28;20025;-78
2021/04/03 00:48:27;;;;;;;27.73;14.25;;;14.80;74.60;;;;;;5053518;28;20056;-78
2021/04/03 00:50:54;;;;;;;32.33;14.25;;;14.70;74.90;;;;;;5053687;28;20017;-78
2021/04/03 00:53:23;;;;;;;24.42;13.68;;;14.70;75.00;;;;;;5052184;28;20032;-78
2021/04/03 00:55:49;;;;;;;28.45;13.57;;;14.70;75.00;;;;;;5053509;28;20028;-78
2021/04/03 00:58:16;;;;;;;24.63;13.77;;;14.70;74.80;;;;;;5099465;27;20012;-78
2021/04/03 01:00:43;;;;;;;25.45;13.68;;;14.60;75.00;;;;;;5073570;28;20035;-78
2021/04/03 01:03:08;;;;;;;32.80;13.93;;;14.50;75.20;;;;;;5073210;28;20398;-78
2021/04/03 01:05:35;;;;;;;28.63;14.02;;;14.50;75.70;;;;;;5073342;28;20028;-78
2021/04/03 01:08:01;;;;;;;26.05;12.80;;;14.50;75.80;;;;;;5073307;28;20031;-78
2021/04/03 01:10:33;;;;;;;22.30;12.55;;;14.40;75.80;;;;;;5073155;28;20024;-78
2021/04/03 01:13:25;;;;;;;27.25;14.07;;;14.40;76.00;;;;;;5071801;28;20028;-78
2021/04/03 01:16:09;;;;;;;27.42;13.35;;;14.30;76.10;;;;;;5073416;28;20070;-78
2021/04/03 01:18:41;;;;;;;24.25;13.60;;;14.20;76.30;;;;;;5072925;28;20475;-78
2021/04/03 01:21:38;;;;;;;23.70;13.85;;;14.30;76.40;;;;;;5073204;28;20052;-78
2021/04/03 01:24:38;;;;;;;24.70;13.60;;;14.30;76.40;;;;;;5071527;28;20052;-78
2021/04/03 01:27:14;;;;;;;22.13;13.13;;;14.30;76.40;;;;;;5072926;28;20035;-78
2021/04/03 01:29:48;;;;;;;27.45;13.30;;;14.20;76.70;;;;;;5072743;28;20028;-78
2021/04/03 01:32:18;;;;;;;27.20;13.93;;;14.20;76.50;;;;;;5071638;28;20115;-78
2021/04/03 01:34:47;;;;;;;33.40;15.75;;;14.20;76.60;;;;;;5072850;28;20070;-78
2021/04/03 01:37:15;;;;;;;26.73;13.88;;;14.10;76.80;;;;;;5072532;28;20029;-78
2021/04/03 01:39:44;;;;;;;28.90;13.48;;;14.10;77.00;;;;;;5072243;28;20360;-78
2021/04/03 01:42:19;;;;;;;30.80;13.45;;;14.10;76.80;;;;;;5071183;28;20122;-78
2021/04/03 01:44:51;;;;;;;29.40;13.93;;;14.00;76.80;;;;;;5072468;28;20103;-78
2021/04/03 01:47:20;;;;;;;30.77;14.13;;;14.00;76.80;;;;;;5072376;28;20483;-78
2021/04/03 01:49:51;;;;;;;26.38;13.55;;;13.90;77.00;;;;;;5072343;28;20085;-78
2021/04/03 01:52:28;;;;;;;24.17;13.30;;;13.90;76.90;;;;;;5072303;28;20490;-78
2021/04/03 01:55:02;;;;;;;22.52;13.05;;;14.00;76.90;;;;;;5072471;28;20028;-78
2021/04/03 01:57:31;;;;;;;29.00;14.27;;;14.00;76.40;;;;;;5072329;28;20056;-78
2021/04/03 01:59:58;;;;;;;24.40;13.75;;;14.00;76.10;;;;;;5072344;28;20116;-78
2021/04/03 02:02:25;;;;;;;26.48;13.45;;;14.00;75.90;;;;;;5070949;28;20024;-78
2021/04/03 02:04:52;;;;;;;29.85;13.38;;;14.00;75.80;;;;;;5070850;28;20566;-78
2021/04/03 02:07:22;;;;;;;25.35;13.05;;;14.00;75.80;;;;;;5072037;28;20029;-78
2021/04/03 02:09:50;;;;;;;29.13;13.27;;;14.00;75.80;;;;;;5072143;28;20032;-78
2021/04/03 02:12:16;;;;;;;23.92;13.35;;;14.00;76.00;;;;;;5072049;28;20028;-78
2021/04/03 02:14:44;;;;;;;26.92;13.35;;;14.00;76.00;;;;;;5070632;28;20405;-78
2021/04/03 02:17:10;;;;;;;24.45;13.35;;;14.00;75.60;;;;;;5071683;28;20490;-78
2021/04/03 02:19:39;;;;;;;23.88;12.60;;;14.00;75.60;;;;;;5072096;28;20021;-78
2021/04/03 02:22:05;;;;;;;33.97;14.68;;;14.00;75.50;;;;;;5072093;28;20028;-78
2021/04/03 02:24:31;;;;;;;25.70;13.98;;;14.00;75.30;;;;;;5071703;28;20135;-78
2021/04/03 02:26:57;;;;;;;25.88;13.15;;;14.00;75.10;;;;;;5071804;28;20562;-78
2021/04/03 02:29:23;;;;;;;30.35;14.63;;;14.00;75.20;;;;;;5071705;28;20104;-78
2021/04/03 02:31:49;;;;;;;25.55;13.18;;;14.00;75.40;;;;;;5070416;28;20032;-78
2021/04/03 02:34:15;;;;;;;24.67;13.80;;;14.00;75.50;;;;;;5071681;28;20025;-78
2021/04/03 02:36:41;;;;;;;26.67;13.73;;;13.90;75.60;;;;;;5071945;28;20047;-79
2021/04/03 02:39:07;;;;;;;24.52;13.57;;;13.90;75.60;;;;;;5071453;28;20013;-78
2021/04/03 02:41:58;;;;;;;28.27;13.98;;;13.90;75.50;;;;;;5070359;28;20110;-78
2021/04/03 02:44:27;;;;;;;26.65;13.55;;;14.00;75.50;;;;;;5070190;28;20040;-78
2021/04/03 02:47:02;;;;;;;29.23;13.65;;;14.00;75.50;;;;;;5071468;28;20024;-78
2021/04/03 02:50:04;;;;;;;29.40;14.43;;;13.90;75.60;;;;;;5073752;28;20486;-78
2021/04/03 02:52:31;;;;;;;;;;;13.90;75.60;;;;;;5052084;28;20032;-78
2021/04/03 02:54:58;;;;;;;25.42;13.30;;;13.90;75.60;;;;;;5070103;28;19904;-79
2021/04/03 02:57:25;;;;;;;26.10;14.35;;;13.90;75.40;;;;;;5071488;28;20092;-78
2021/04/03 02:59:54;;;;;;;28.92;14.13;;;14.00;75.50;;;;;;5071519;28;20021;-78
2021/04/03 03:02:23;;;;;;;31.55;13.73;;;13.90;75.50;;;;;;5071379;28;20028;-78
2021/04/03 03:04:50;;;;;;;30.55;13.98;;;13.90;75.30;;;;;;5071258;28;20517;-78
2021/04/03 03:07:20;;;;;;;24.92;14.05;;;13.90;75.80;;;;;;5071214;28;20035;-78
2021/04/03 03:09:48;;;;;;;22.65;13.10;;;13.80;76.40;;;;;;5071258;28;20024;-78
2021/04/03 03:12:16;;;;;;;23.38;14.13;;;13.70;76.80;;;;;;5071513;28;20100;-79
2021/04/03 03:14:42;;;;;;;25.27;13.65;;;13.70;77.00;;;;;;5071212;28;20021;-78
2021/04/03 03:17:13;;;;;;;28.17;14.60;;;13.70;76.60;;;;;;5071080;28;20097;-78
2021/04/03 03:19:40;;;;;;;25.80;12.95;;;13.70;76.80;;;;;;5071326;28;20316;-78
2021/04/03 03:22:07;;;;;;;23.92;13.07;;;13.70;76.80;;;;;;5070004;28;20036;-78
2021/04/03 03:24:34;;;;;;;27.35;14.52;;;13.70;77.00;;;;;;5071052;28;20080;-78
2021/04/03 03:27:01;;;;;;;27.60;14.10;;;13.70;76.60;;;;;;5071036;28;20409;-79
2021/04/03 03:29:28;;;;;;;30.60;14.43;;;13.70;76.70;;;;;;5069733;28;20479;-78
2021/04/03 03:31:54;;;;;;;26.10;14.13;;;13.70;76.60;;;;;;5070259;28;20063;-78
2021/04/03 03:34:21;;;;;;;25.10;14.05;;;13.60;77.10;;;;;;5069714;28;20017;-78
2021/04/03 03:36:47;;;;;;;31.75;15.75;;;13.50;77.10;;;;;;5071092;28;20024;-78
2021/04/03 03:39:14;;;;;;;24.25;13.50;;;13.50;77.40;;;;;;5070947;28;20020;-79
2021/04/03 03:41:41;;;;;;;29.33;14.20;;;13.60;77.40;;;;;;5071122;28;20032;-78
2021/04/03 03:44:09;;;;;;;25.73;14.18;;;13.60;77.00;;;;;;5070825;28;20055;-78
2021/04/03 03:46:35;;;;;;;29.30;14.57;;;13.60;77.20;;;;;;5070943;28;20016;-78
2021/04/03 03:49:04;;;;;;;30.33;14.80;;;13.60;77.50;;;;;;5070988;28;20049;-78
2021/04/03 03:51:32;;;;;;;26.92;15.18;;;13.40;78.00;;;;;;5071043;28;20074;-78
2021/04/03 03:53:58;;;;;;;30.67;15.15;;;13.30;78.50;;;;;;5069599;28;20028;-78
2021/04/03 03:56:24;;;;;;;28.60;15.57;;;13.20;78.70;;;;;;5069495;28;20020;-78
2021/04/03 03:58:50;;;;;;;31.05;15.23;;;13.20;79.00;;;;;;5070943;28;20032;-78
2021/04/03 04:01:16;;;;;;;29.58;15.23;;;13.30;79.20;;;;;;5071156;28;20059;-78
2021/04/03 04:03:42;;;;;;;30.88;16.02;;;13.20;79.30;;;;;;5074450;28;20127;-78
2021/04/03 04:06:08;;;;;;;33.33;15.30;;;13.20;79.20;;;;;;5074589;28;20024;-79
2021/04/03 04:08:33;;;;;;;28.40;14.88;;;13.30;79.20;;;;;;5072940;28;20024;-78
2021/04/03 04:10:59;;;;;;;32.63;16.00;;;13.30;79.20;;;;;;5074120;28;20118;-78
2021/04/03 04:13:25;;;;;;;32.70;16.15;;;13.30;79.30;;;;;;5073182;28;20036;-78
2021/04/03 04:15:54;;;;;;;34.40;15.50;;;13.30;79.60;;;;;;5074143;28;20020;-78
2021/04/03 04:18:20;;;;;;;31.20;16.42;;;13.30;79.60;;;;;;5074113;28;20035;-78
2021/04/03 04:20:46;;;;;;;33.53;17.13;;;13.20;79.60;;;;;;5074303;28;20021;-78
2021/04/03 04:23:11;;;;;;;37.20;16.48;;;13.20;80.00;;;;;;5074034;28;20506;-79
2021/04/03 04:25:37;;;;;;;32.35;16.35;;;13.20;80.30;;;;;;5073930;28;20103;-78
2021/04/03 04:28:03;;;;;;;30.88;16.60;;;13.10;80.50;;;;;;5074221;28;20028;-78
2021/04/03 04:30:28;;;;;;;33.33;16.95;;;13.20;80.70;;;;;;5073948;28;20098;-78
2021/04/03 04:32:54;;;;;;;35.70;17.10;;;13.20;80.70;;;;;;5073885;28;20025;-78
2021/04/03 04:35:20;;;;;;;35.78;16.40;;;13.20;80.90;;;;;;5074063;28;20044;-78
2021/04/03 04:37:46;;;;;;;40.72;19.85;;;13.20;81.00;;;;;;5073668;28;20025;-79
2021/04/03 04:40:13;;;;;;;34.53;17.88;;;13.10;81.30;;;;;;5072494;28;20037;-78
2021/04/03 04:42:41;;;;;;;33.85;19.02;;;13.00;81.80;;;;;;5073945;28;20112;-79
2021/04/03 04:45:08;;;;;;;37.67;17.70;;;13.00;81.90;;;;;;5072688;28;20054;-78
2021/04/03 04:47:34;;;;;;;31.88;18.25;;;13.00;82.10;;;;;;5073515;28;20053;-78
2021/04/03 04:50:00;;;;;;;35.17;17.63;;;13.00;82.30;;;;;;5072527;28;20094;-78
2021/04/03 04:52:27;;;;;;;36.70;18.05;;;13.00;82.20;;;;;;5076452;28;20029;-78
2021/04/03 04:54:52;;;;;;;34.35;17.70;;;13.00;82.70;;;;;;5072137;28;20052;-78
2021/04/03 04:57:18;;;;;;;34.58;17.23;;;13.00;82.60;;;;;;5073529;28;20028;-78
2021/04/03 04:59:44;;;;;;;36.15;19.65;;;13.00;82.70;;;;;;5073490;28;20025;-78
2021/04/03 05:02:09;;;;;;;34.58;18.90;;;12.90;83.00;;;;;;5072088;28;20024;-79
2021/04/03 05:04:35;;;;;;;33.50;18.33;;;12.90;83.20;;;;;;5073502;28;20021;-78
2021/04/03 05:07:01;;;;;;;31.80;18.02;;;12.80;83.60;;;;;;5073219;28;20425;-78
2021/04/03 05:09:26;;;;;;;35.78;18.92;;;12.90;83.80;;;;;;5073040;28;20020;-78
2021/04/03 05:11:52;;;;;;;37.30;18.52;;;12.80;83.70;;;;;;5073307;28;20024;-79
2021/04/03 05:14:18;;;;;;;36.05;19.27;;;12.80;84.00;;;;;;5072277;28;20399;-78
2021/04/03 05:16:43;;;;;;;37.35;18.55;;;12.80;84.00;;;;;;5073147;28;20021;-79
2021/04/03 05:19:09;;;;;;;34.42;18.35;;;12.80;84.40;;;;;;5073149;28;20060;-79
2021/04/03 05:21:35;;;;;;;32.85;17.48;;;12.80;84.40;;;;;;5072924;28;20036;-78
2021/04/03 05:24:00;;;;;;;34.10;18.63;;;12.70;84.50;;;;;;5073100;28;20510;-78
2021/04/03 05:26:26;;;;;;;32.40;17.77;;;12.70;84.80;;;;;;5069331;28;20094;-78
2021/04/03 05:28:52;;;;;;;35.35;18.30;;;12.60;85.10;;;;;;5069750;28;20100;-78
2021/04/03 05:31:21;;;;;;;39.83;20.00;;;12.60;85.50;;;;;;5052883;28;20037;-78
2021/04/03 05:33:49;;;;;;;36.53;18.63;;;12.60;85.50;;;;;;5065049;28;20052;-78
2021/04/03 05:36:16;;;;;;;46.63;19.50;;;12.60;85.30;;;;;;5072772;28;20437;-78
2021/04/03 05:38:41;;;;;;;36.63;19.73;;;12.70;85.90;;;;;;5063554;28;20043;-78
2021/04/03 05:41:08;;;;;;;32.10;18.45;;;12.70;85.80;;;;;;5054295;28;20028;-78
2021/04/03 05:43:39;;;;;;;33.58;17.85;;;12.70;85.60;;;;;;5070599;28;20099;-79
2021/04/03 05:46:04;;;;;;;33.63;18.27;;;12.70;85.30;;;;;;5070467;28;20115;-78
2021/04/03 05:48:30;;;;;;;35.80;18.52;;;12.70;85.20;;;;;;5070572;28;20128;-78
2021/04/03 05:50:59;;;;;;;36.40;18.20;;;12.60;85.40;;;;;;5070334;28;20024;-79
2021/04/03 05:53:25;;;;;;;42.55;18.13;;;12.60;85.60;;;;;;5070355;28;20078;-78
2021/04/03 05:55:52;;;;;;;35.03;17.70;;;12.60;85.50;;;;;;5071398;28;20035;-78
2021/04/03 05:58:18;;;;;;;34.63;17.00;;;12.60;85.40;;;;;;5072320;28;20031;-78
2021/04/03 06:00:44;;;;;;;30.30;17.17;;;12.70;85.80;;;;;;5072204;28;20098;-78
2021/04/03 06:03:10;;;;;;;32.75;17.10;;;12.70;85.90;;;;;;5072150;28;20020;-78
2021/04/03 06:05:37;;;;;;;39.90;16.75;;;12.70;85.60;;;;;;5072386;28;20063;-78
2021/04/03 06:08:03;;;;;;;34.42;17.42;;;12.70;85.70;;;;;;5071666;28;20062;-78
2021/04/03 06:10:28;;;;;;;31.02;17.05;;;12.80;85.60;;;;;;5071954;28;20028;-79
2021/04/03 06:12:54;;;;;;;34.85;17.15;;;12.80;85.50;;;;;;5072032;28;20024;-79
2021/04/03 06:15:32;;;;;;;34.33;16.98;;;12.90;85.50;;;;;;5071934;28;20025;-79
2021/04/03 06:17:59;;;;;;;32.35;15.60;;;12.90;85.50;;;;;;5072038;28;20032;-78
2021/04/03 06:20:38;;;;;;;30.67;16.95;;;12.90;85.10;;;;;;5071951;28;20029;-78
2021/04/03 06:23:06;;;;;;;41.83;16.63;;;12.90;84.60;;;;;;5071768;28;20052;-78
2021/04/03 06:25:58;;;;;;;30.00;16.10;;;13.00;84.60;;;;;;5071900;28;20488;-78
2021/04/03 06:28:29;;;;;;;34.95;17.08;;;13.10;85.30;;;;;;5071538;28;20103;-79
2021/04/03 06:31:16;;;;;;;36.03;17.92;;;13.10;85.80;;;;;;5071677;28;20040;-78
2021/04/03 06:33:42;;;;;;;40.45;18.83;;;13.20;85.70;;;;;;5070316;28;20028;-78
2021/04/03 06:36:13;;;;;;;31.77;17.92;;;13.20;85.80;;;;;;5070491;28;20029;-78
2021/04/03 06:38:40;;;;;;;32.33;19.33;;;13.30;86.40;;;;;;5071682;28;20017;-78
2021/04/03 06:41:14;;;;;;;31.05;18.80;;;13.40;87.00;;;;;;5070309;28;20440;-78
2021/04/03 06:43:40;;;;;;;29.55;17.55;;;13.40;86.50;;;;;;5071775;28;20025;-78
2021/04/03 06:46:25;;;;;;;35.20;18.38;;;13.50;86.80;;;;;;5071670;28;20390;-78
2021/04/03 06:48:52;;;;;;;36.95;19.20;;;13.50;87.00;;;;;;5071326;28;20099;-78
2021/04/03 06:51:23;;;;;;;38.17;21.40;;;13.60;87.30;;;;;;5071568;28;20025;-78
2021/04/03 06:53:50;;;;;;;47.80;24.83;;;13.60;88.50;;;;;;5071565;28;20410;-79
2021/04/03 06:56:24;;;;;;;42.10;22.88;;;13.70;88.70;;;;;;5071553;28;20017;-78
2021/04/03 06:59:11;;;;;;;39.97;21.95;;;13.80;88.30;;;;;;5071260;28;20025;-79
2021/04/03 07:01:49;;;;;;;52.28;23.33;;;13.80;87.50;;;;;;5071886;28;20027;-78
2021/04/03 07:04:31;;;;;;;48.97;23.20;;;13.90;87.30;;;;;;5070898;28;20082;-78
2021/04/03 07:06:58;;;;;;;54.28;24.58;;;14.00;87.90;;;;;;5070180;28;20047;-78
2021/04/03 07:09:25;;;;;;;39.40;22.35;;;14.00;87.10;;;;;;5070846;28;20475;-78
2021/04/03 07:11:52;;;;;;;42.05;22.13;;;14.00;86.70;;;;;;5070823;28;20054;-78
2021/04/03 07:14:20;;;;;;;47.83;23.27;;;14.10;86.30;;;;;;5072315;28;20023;-78
2021/04/03 07:16:47;;;;;;;35.42;21.92;;;14.10;86.40;;;;;;5072677;28;20085;-79
2021/04/03 07:19:14;;;;;;;42.63;22.58;;;14.20;86.50;;;;;;5072731;28;20095;-78
2021/04/03 07:21:41;;;;;;;46.03;22.80;;;14.20;86.80;;;;;;5070537;28;20506;-78
2021/04/03 07:24:12;;;;;;;42.67;21.80;;;14.30;88.50;;;;;;5072095;28;20438;-78
2021/04/03 07:26:43;;;;;;;42.10;24.37;;;14.30;88.40;;;;;;5071274;28;20021;-78
2021/04/03 07:29:09;;;;;;;40.92;22.40;;;14.40;89.70;;;;;;5072591;28;20082;-75
2021/04/03 07:31:40;;;;;;;42.63;22.95;;;14.50;89.30;;;;;;5070315;28;20024;-75
2021/04/03 07:34:07;;;;;;;42.92;23.98;;;14.50;90.10;;;;;;5069868;28;20025;-75
2021/04/03 07:36:34;;;;;;;39.08;23.15;;;14.60;90.30;;;;;;5070232;28;20032;-75
2021/04/03 07:39:00;;;;;;;44.35;25.10;;;14.70;90.10;;;;;;5071458;28;20020;-75
2021/04/03 07:41:39;;;;;;;38.63;22.67;;;14.70;90.40;;;;;;5074793;28;20371;-75
2021/04/03 07:44:13;;;;;;;40.60;23.08;;;14.70;90.20;;;;;;5070199;28;20017;-75
2021/04/03 07:46:44;;;;;;;37.00;21.88;;;14.80;90.30;;;;;;5072992;28;20016;-75
2021/04/03 07:49:31;;;;;;;33.57;20.57;;;14.90;90.50;;;;;;5074511;28;20029;-75
2021/04/03 07:51:56;;;;;;;34.75;20.63;;;14.90;90.30;;;;;;5071164;28;20620;-75
2021/04/03 07:54:25;;;;;;;34.40;21.23;;;15.00;90.20;;;;;;5071686;28;20033;-75
2021/04/03 07:56:53;;;;;;;35.65;20.42;;;15.00;89.90;;;;;;5072405;28;20054;-75
2021/04/03 07:59:48;;;;;;;32.13;19.38;;;15.10;89.70;;;;;;5074415;28;20020;-78
2021/04/03 08:02:22;;;;;;;27.17;18.02;;;15.20;89.30;;;;;;5077502;28;20520;-79
2021/04/03 08:04:49;;;;;;;30.63;17.90;;;15.30;88.20;;;;;;5064010;28;20462;-81
2021/04/03 08:07:17;;;;;;;29.33;17.45;;;15.30;87.80;;;;;;5082182;28;20381;-79
2021/04/03 08:09:43;;;;;;;26.65;17.13;;;15.40;87.00;;;;;;5082500;28;20471;-79
2021/04/03 08:12:09;;;;;;;28.85;17.27;;;15.50;86.40;;;;;;5079355;28;20021;-79
2021/04/03 08:14:36;;;;;;;30.77;19.20;;;15.60;86.40;;;;;;5078770;28;20028;-79
2021/04/03 08:17:04;;;;;;;28.70;18.05;;;15.70;86.80;;;;;;5073744;28;20043;-79
2021/04/03 08:19:33;;;;;;;27.35;16.65;;;15.80;86.60;;;;;;5074871;28;20107;-78
2021/04/03 08:22:00;;;;;;;27.92;17.17;;;15.90;86.60;;;;;;5077571;28;20417;-78
2021/04/03 08:24:26;;;;;;;24.42;16.50;;;16.00;86.10;;;;;;5072799;28;20052;-78
2021/04/03 08:26:52;;;;;;;32.15;16.02;;;16.10;83.90;;;;;;5072564;28;20033;-78
2021/04/03 08:29:27;;;;;;;33.65;17.13;;;16.30;84.60;;;;;;5072743;28;20104;-76
2021/04/03 08:31:54;;;;;;;30.50;16.50;;;16.40;83.30;;;;;;5071364;28;20039;-76
2021/04/03 08:34:20;;;;;;;26.98;14.50;;;16.40;82.60;;;;;;5072773;28;20052;-76
2021/04/03 08:36:49;;;;;;;22.95;13.57;;;16.50;80.40;;;;;;5063514;28;20029;-78
2021/04/03 08:39:18;;;;;;;23.05;12.35;;;16.50;79.80;;;;;;5061222;28;20024;-78
2021/04/03 08:41:49;;;;;;;18.33;10.15;;;16.50;80.70;;;;;;5070033;28;20516;-78
2021/04/03 08:44:23;;;;;;;17.63;9.07;;;16.60;79.10;;;;;;5068181;28;20694;-79
2021/04/03 08:46:51;;;;;;;15.23;9.80;;;16.70;78.70;;;;;;5069064;28;20572;-77
2021/04/03 08:49:37;;;;;;;14.02;8.63;;;16.70;78.60;;;;;;5064945;28;20027;-78
2021/04/03 08:52:07;;;;;;;17.05;7.82;;;16.70;77.40;;;;;;5069458;28;20021;-79
2021/04/03 08:54:41;;;;;;;13.05;7.60;;;16.80;76.80;;;;;;5065958;28;20024;-77
2021/04/03 08:57:20;;;;;;;17.95;7.60;;;16.80;78.00;;;;;;5066720;28;20074;-76
2021/04/03 08:59:46;;;;;;;13.07;7.35;;;16.90;76.60;;;;;;5067862;28;20032;-78
2021/04/03 09:02:12;;;;;;;7.75;5.95;;;16.90;75.80;;;;;;5069265;28;20024;-78
2021/04/03 09:04:38;;;;;;;9.65;6.97;;;16.80;75.30;;;;;;5051696;28;20036;-78
2021/04/03 09:07:03;;;;;;;11.73;5.38;;;16.90;75.20;;;;;;5066996;28;21022;-78
2021/04/03 09:09:29;;;;;;;13.57;5.90;;;16.90;75.80;;;;;;5065491;28;20062;-78
2021/04/03 09:12:03;;;;;;;8.55;6.00;;;17.00;76.50;;;;;;5067304;28;20025;-80
2021/04/03 09:14:36;;;;;;;9.43;5.53;;;17.00;74.90;;;;;;5062706;28;20655;-79
2021/04/03 09:17:04;;;;;;;15.93;6.60;;;17.00;76.10;;;;;;5064217;28;20048;-76
2021/04/03 09:19:35;;;;;;;12.55;5.68;;;16.90;73.90;;;;;;5065054;28;20028;-74
2021/04/03 09:22:02;;;;;;;9.23;5.18;;;16.80;73.70;;;;;;5068046;28;20356;-74
2021/04/03 09:24:43;;;;;;;8.50;5.35;;;16.70;74.50;;;;;;5067976;28;20589;-74
2021/04/03 09:27:18;;;;;;;6.15;4.70;;;16.70;73.60;;;;;;5068137;28;20024;-74
2021/04/03 09:29:56;;;;;;;9.48;5.57;;;16.80;74.10;;;;;;5067928;28;20031;-74
2021/04/03 09:32:22;;;;;;;9.63;5.50;;;16.80;74.40;;;;;;5065702;28;20090;-78
2021/04/03 09:34:48;;;;;;;5.50;5.00;;;16.80;73.60;;;;;;5066952;28;20017;-78
2021/04/03 09:37:18;;;;;;;9.75;5.45;;;16.80;74.10;;;;;;5066430;28;20078;-78
2021/04/03 09:40:05;;;;;;;5.65;4.28;;;16.90;75.30;;;;;;5064225;28;20020;-78
2021/04/03 09:42:31;;;;;;;7.13;4.60;;;17.00;75.60;;;;;;5065364;28;20028;-78
2021/04/03 09:44:59;;;;;;;6.03;4.47;;;17.10;76.20;;;;;;5049632;28;20559;-78
2021/04/03 09:47:26;;;;;;;8.85;4.95;;;17.10;75.90;;;;;;5063729;28;20036;-78
2021/04/03 09:49:52;;;;;;;8.55;4.07;;;17.10;76.50;;;;;;5066956;28;20036;-78
2021/04/03 09:52:19;;;;;;;10.13;4.55;;;17.10;75.80;;;;;;5053512;28;20111;-74
2021/04/03 09:54:46;;;;;;;5.35;3.85;;;17.10;75.90;;;;;;5057853;28;20016;-74
2021/04/03 09:57:13;;;;;;;6.57;4.68;;;17.10;76.20;;;;;;5066131;28;20035;-74
2021/04/03 09:59:40;;;;;;;8.43;4.13;;;17.20;76.10;;;;;;5056354;28;20021;-73
2021/04/03 10:02:07;;;;;;;6.70;5.18;;;17.20;75.50;;;;;;5065791;28;20504;-74
2021/04/03 10:04:33;;;;;;;7.15;4.60;;;17.30;73.50;;;;;;5062732;28;20020;-74
2021/04/03 10:06:59;;;;;;;7.70;4.82;;;17.30;72.80;;;;;;5064928;28;20017;-74
2021/04/03 10:09:25;;;;;;;13.00;4.30;;;17.30;73.50;;;;;;5062345;28;20107;-74
2021/04/03 10:11:55;;;;;;;9.05;4.35;;;17.30;73.40;;;;;;5065646;28;20500;-74
2021/04/03 10:14:24;;;;;;;11.23;4.32;;;17.30;70.20;;;;;;5061931;28;20074;-79
2021/04/03 10:16:50;;;;;;;12.30;5.55;;;17.30;71.60;;;;;;5061187;28;20078;-78
2021/04/03 10:19:16;;;;;;;6.63;4.72;;;17.20;69.60;;;;;;5058291;28;20430;-78
2021/04/03 10:21:42;;;;;;;12.30;4.80;;;17.10;69.00;;;;;;5059440;28;20340;-78
2021/04/03 10:24:09;;;;;;;7.15;3.75;;;17.00;70.40;;;;;;5059581;28;20105;-78
2021/04/03 10:26:35;;;;;;;4.50;4.00;;;17.00;71.10;;;;;;5063755;28;20021;-78
2021/04/03 10:29:01;;;;;;;6.13;3.92;;;17.10;69.30;;;;;;5057969;28;20425;-78
2021/04/03 10:31:26;;;;;;;6.15;4.30;;;17.10;70.10;;;;;;5059745;28;20111;-78
2021/04/03 10:33:52;;;;;;;7.28;4.30;;;17.10;69.30;;;;;;5059095;28;20029;-78
2021/04/03 10:36:18;;;;;;;7.50;3.83;;;17.20;70.20;;;;;;5057331;28;20075;-78
2021/04/03 10:38:45;;;;;;;8.65;4.00;;;17.20;68.30;;;;;;5066019;28;20028;-78
2021/04/03 10:41:11;;;;;;;5.50;3.90;;;17.20;68.80;;;;;;5058908;28;20029;-78
2021/04/03 10:43:37;;;;;;;6.25;4.57;;;17.20;67.10;;;;;;5060459;28;20422;-78
2021/04/03 10:46:03;;;;;;;5.90;4.18;;;17.40;68.90;;;;;;5062707;28;20306;-78
2021/04/03 10:48:29;;;;;;;10.30;4.60;;;17.40;66.40;;;;;;5067045;28;20025;-78
2021/04/03 10:50:54;;;;;;;7.75;4.65;;;17.60;68.90;;;;;;5061364;28;20555;-78
2021/04/03 10:53:20;;;;;;;7.40;4.18;;;17.70;68.00;;;;;;5074077;28;20033;-78
2021/04/03 10:55:46;;;;;;;4.60;3.55;;;17.80;67.50;;;;;;5070407;28;20025;-78
2021/04/03 10:58:12;;;;;;;5.15;3.92;;;17.90;66.40;;;;;;5072854;28;20074;-78
2021/04/03 11:00:39;;;;;;;8.82;4.18;;;18.00;64.80;;;;;;5067074;28;22088;-78
2021/04/03 11:03:08;;;;;;;7.05;4.03;;;18.00;65.70;;;;;;5059835;28;20070;-78
2021/04/03 11:05:33;;;;;;;4.38;3.78;;;18.10;65.20;;;;;;5068743;28;20024;-79
2021/04/03 11:07:59;;;;;;;8.10;3.95;;;18.00;65.10;;;;;;5063521;28;20033;-78
2021/04/03 11:10:25;;;;;;;12.35;3.97;;;18.00;66.20;;;;;;5067969;28;20063;-74
2021/04/03 11:12:53;;;;;;;7.35;3.53;;;18.00;65.80;;;;;;5064768;28;20390;-74
2021/04/03 11:15:25;;;;;;;5.13;3.55;;;18.00;66.20;;;;;;5074193;28;20120;-73
2021/04/03 11:18:35;;;;;;;7.15;4.50;;;17.80;65.30;;;;;;5075121;28;20490;-74
2021/04/03 11:21:02;;;;;;;6.65;3.88;;;17.80;65.40;;;;;;5071022;28;20016;-73
2021/04/03 11:23:28;;;;;;;4.47;4.03;;;17.80;66.60;;;;;;5068963;28;20194;-74
2021/04/03 11:25:53;;;;;;;7.60;3.75;;;18.20;67.40;;;;;;5067605;28;20035;-73
2021/04/03 11:28:19;;;;;;;5.05;4.20;;;18.30;65.30;;;;;;5067997;28;20013;-73
2021/04/03 11:30:45;;;;;;;4.95;3.47;;;18.40;64.20;;;;;;5078981;28;20064;-73
2021/04/03 11:33:11;;;;;;;9.13;4.30;;;18.30;65.40;;;;;;5074782;28;20451;-73
2021/04/03 11:35:37;;;;;;;5.35;4.15;;;18.20;63.60;;;;;;5081966;28;20028;-73
2021/04/03 11:38:04;;;;;;;7.07;3.70;;;18.00;63.30;;;;;;5078539;28;20025;-74
2021/04/03 11:40:29;;;;;;;5.93;3.33;;;17.90;64.60;;;;;;5088287;28;20423;-73
2021/04/03 11:42:56;;;;;;;5.82;3.38;;;18.10;63.70;;;;;;5074039;28;20023;-73
2021/04/03 11:45:23;;;;;;;6.78;3.58;;;18.20;65.80;;;;;;5080522;28;20032;-74
2021/04/03 11:47:50;;;;;;;9.82;3.92;;;18.40;63.50;;;;;;5083777;28;20035;-73
2021/04/03 11:50:16;;;;;;;6.97;3.55;;;18.40;63.10;;;;;;5077731;28;20570;-73
2021/04/03 11:52:43;;;;;;;9.15;3.85;;;18.60;63.90;;;;;;5076968;28;20039;-74
2021/04/03 11:55:10;;;;;;;3.38;3.05;;;18.80;64.30;;;;;;5068415;28;20047;-73
2021/04/03 11:57:36;;;;;;;3.45;2.90;;;19.10;63.20;;;;;;5071826;28;20020;-73
2021/04/03 12:00:04;;;;;;;4.13;3.72;;;19.30;61.60;;;;;;5072681;28;20036;-73
2021/04/03 12:02:30;;;;;;;12.00;3.03;;;19.40;59.90;;;;;;5074637;28;20071;-73
2021/04/03 12:04:57;;;;;;;6.90;3.90;;;19.60;58.30;;;;;;5076569;28;20048;-73
2021/04/03 12:07:23;;;;;;;6.03;4.10;;;19.50;56.80;;;;;;5074833;28;20029;-73
2021/04/03 12:09:49;;;;;;;15.35;3.50;;;19.10;56.70;;;;;;5072050;28;20498;-73
2021/04/03 12:12:14;;;;;;;9.60;3.38;;;19.20;58.40;;;;;;5067815;28;20024;-75
2021/04/03 12:14:40;;;;;;;9.98;3.10;;;19.20;57.00;;;;;;5072088;28;20058;-74
2021/04/03 12:17:06;;;;;;;6.47;2.72;;;19.50;58.30;;;;;;5071169;28;20039;-73
2021/04/03 12:19:32;;;;;;;7.60;3.47;;;19.40;56.40;;;;;;5071178;28;20546;-74
2021/04/03 12:21:57;;;;;;;9.95;4.05;;;19.30;56.80;;;;;;5071990;28;20020;-74
2021/04/03 12:24:23;;;;;;;6.25;3.92;;;19.30;58.20;;;;;;5080262;28;20045;-74
2021/04/03 12:26:49;;;;;;;5.80;3.35;;;19.30;56.70;;;;;;5071028;28;20085;-73
2021/04/03 12:29:14;;;;;;;8.82;3.92;;;19.30;57.00;;;;;;5069826;28;20116;-74
2021/04/03 12:31:40;;;;;;;6.50;3.30;;;19.40;56.90;;;;;;5071172;28;20031;-73
2021/04/03 12:34:06;;;;;;;6.28;3.25;;;19.50;58.30;;;;;;5073117;28;20074;-73
2021/04/03 12:36:32;;;;;;;8.32;3.70;;;19.30;56.00;;;;;;5071390;28;20048;-74
2021/04/03 12:38:57;;;;;;;5.88;3.40;;;19.30;56.20;;;;;;5071418;28;20081;-74
2021/04/03 12:41:23;;;;;;;3.78;3.22;;;19.10;56.00;;;;;;5066509;28;20040;-74